createdAt,value
2018-12-29T01:54:42.922Z,5.57
2018-12-29T05:38:35.508Z,8.73
2018-12-29T06:19:07.890Z,12.33
2018-12-29T06:29:09.133Z,10.87
2018-12-29T06:39:10.453Z,9.10
2018-12-29T06:49:12.562Z,10.90
2018-12-29T06:59:13.863Z,11.07
2018-12-29T07:09:15.153Z,14.57
2018-12-29T07:19:17.373Z,19.10
2018-12-29T07:29:18.711Z,14.37
2018-12-29T09:10:43.727Z,12.43
2018-12-29T09:20:46.659Z,11.37
2018-12-29T09:30:46.313Z,11.03
2018-12-29T09:40:47.588Z,10.13
2018-12-29T09:50:48.860Z,9.63
2018-12-29T10:00:50.122Z,9.50
2018-12-29T10:10:51.417Z,9.60
2018-12-29T10:20:52.657Z,10.23
2018-12-29T10:30:53.971Z,9.90
2018-12-29T10:41:01.495Z,10.50
2018-12-29T10:51:03.470Z,10.83
2018-12-29T14:57:23.089Z,15.97
2018-12-29T15:07:24.354Z,15.37
2018-12-29T15:17:25.619Z,16.03
2018-12-29T15:27:26.878Z,16.00
2018-12-29T15:37:28.141Z,14.43
2018-12-29T15:47:29.414Z,16.10
2018-12-29T15:57:30.711Z,16.93
2018-12-29T16:07:32.017Z,17.20
2018-12-29T16:17:33.312Z,18.57
2018-12-29T16:27:34.608Z,19.57
2018-12-29T16:37:37.473Z,20.07
2018-12-29T16:47:37.217Z,20.83
2018-12-29T16:57:38.524Z,19.83
2018-12-29T17:07:39.831Z,19.17
2018-12-29T17:17:41.150Z,17.97
2018-12-29T17:47:57.636Z,20.47
2018-12-29T17:57:59.822Z,20.83
2018-12-29T18:08:00.234Z,21.37
2018-12-29T18:18:01.574Z,21.53
2018-12-29T18:28:02.851Z,21.90
2018-12-29T18:38:04.177Z,22.60
2018-12-29T18:48:05.471Z,22.90
2018-12-29T18:58:06.802Z,26.03
2018-12-29T19:08:08.893Z,24.80
2018-12-29T19:18:10.189Z,23.40
2018-12-29T19:28:11.508Z,23.67
2018-12-29T19:38:12.836Z,23.43
2018-12-29T19:48:14.137Z,22.13
2018-12-29T19:58:15.412Z,22.90
2018-12-29T20:08:16.709Z,23.67
2018-12-29T20:18:18.941Z,23.97
2018-12-29T20:28:20.204Z,24.50
2018-12-29T20:38:21.472Z,23.87
2018-12-29T20:58:30.677Z,23.90
